Time;durP1;ratioP1;P1;durP2;ratioP2;P2;SDS_P1;SDS_P2;PMS_P1;PMS_P2;Temp;Humidity;BMP_temperature;BMP_pressure;BME280_temperature;BME280_humidity;BME280_pressure;Samples;Min_cycle;Max_cycle;Signal;HPM_P1;HPM_P2
2023/08/11 00:00:21;;;;;;;2.75;1.48;;;20.30;99.90;;;;;;5072420;28;20025;-41
2023/08/11 00:02:49;;;;;;;2.25;1.30;;;20.30;99.90;;;;;;5072524;28;20024;-40
2023/08/11 00:05:17;;;;;;;1.52;1.30;;;20.30;99.90;;;;;;5072474;28;20024;-42
2023/08/11 00:07:43;;;;;;;2.67;1.50;;;20.30;99.90;;;;;;5072440;28;20078;-40
2023/08/11 00:10:09;;;;;;;2.42;1.20;;;20.30;99.90;;;;;;5072263;28;20032;-40
2023/08/11 00:12:35;;;;;;;2.38;1.55;;;20.30;99.90;;;;;;5072361;28;20385;-40
2023/08/11 00:15:00;;;;;;;2.28;1.40;;;20.30;99.90;;;;;;5072208;28;20032;-41
2023/08/11 00:17:27;;;;;;;2.25;1.73;;;20.30;99.90;;;;;;5072218;28;20033;-40
2023/08/11 00:19:52;;;;;;;2.13;1.40;;;20.30;99.90;;;;;;5072007;28;20028;-40
2023/08/11 00:22:18;;;;;;;1.92;1.40;;;20.30;99.90;;;;;;5072064;28;20390;-41
2023/08/11 00:24:43;;;;;;;2.33;1.30;;;20.30;99.90;;;;;;5072063;28;20477;-40
2023/08/11 00:27:09;;;;;;;2.70;1.40;;;20.30;99.90;;;;;;5072117;28;20037;-40
2023/08/11 00:29:34;;;;;;;2.65;1.77;;;20.30;99.90;;;;;;5072118;28;20501;-42
2023/08/11 00:32:00;;;;;;;2.40;1.70;;;20.30;99.90;;;;;;5072016;28;20478;-40
2023/08/11 00:34:26;;;;;;;2.55;1.50;;;20.30;99.90;;;;;;5071820;28;20024;-40
2023/08/11 00:36:51;;;;;;;2.53;1.35;;;20.30;99.90;;;;;;5071747;28;20393;-40
2023/08/11 00:39:17;;;;;;;2.95;1.40;;;20.30;99.90;;;;;;5071649;28;20048;-41
2023/08/11 00:41:43;;;;;;;2.35;1.30;;;20.30;99.90;;;;;;5071845;28;20021;-40
2023/08/11 00:44:08;;;;;;;1.75;1.50;;;20.20;99.90;;;;;;5071725;28;20416;-40
2023/08/11 00:46:34;;;;;;;1.80;1.35;;;20.30;99.90;;;;;;5071770;28;20028;-40
2023/08/11 00:49:00;;;;;;;4.05;1.60;;;20.20;99.90;;;;;;5071454;28;20103;-40
2023/08/11 00:51:27;;;;;;;2.40;1.25;;;20.20;99.90;;;;;;5071516;28;20039;-41
2023/08/11 00:53:53;;;;;;;2.13;1.58;;;20.20;99.90;;;;;;5071544;28;20027;-40
2023/08/11 00:56:22;;;;;;;1.50;1.27;;;20.20;99.90;;;;;;5071569;28;20024;-40
2023/08/11 00:58:49;;;;;;;2.33;1.35;;;20.20;99.90;;;;;;5071360;28;20055;-43
2023/08/11 01:01:15;;;;;;;1.65;1.38;;;20.20;99.90;;;;;;5071476;28;20029;-40
2023/08/11 01:03:43;;;;;;;2.15;1.70;;;20.20;99.90;;;;;;5070960;28;20331;-40
2023/08/11 01:06:21;;;;;;;2.03;1.55;;;20.20;99.90;;;;;;5071364;28;20099;-40
2023/08/11 01:09:11;;;;;;;2.58;1.58;;;20.20;99.90;;;;;;5071410;28;20059;-42
2023/08/11 01:12:08;;;;;;;1.52;1.35;;;20.20;99.90;;;;;;5071501;28;20099;-40
2023/08/11 01:14:53;;;;;;;3.55;1.52;;;20.20;99.90;;;;;;5071199;28;20025;-43
2023/08/11 01:17:20;;;;;;;2.13;1.55;;;20.20;99.90;;;;;;5071144;28;20028;-40
2023/08/11 01:19:47;;;;;;;1.50;1.40;;;20.20;99.90;;;;;;5071133;28;20021;-42
2023/08/11 01:22:24;;;;;;;5.03;1.75;;;20.20;99.90;;;;;;5070021;28;20020;-42
2023/08/11 01:24:51;;;;;;;2.15;1.70;;;20.20;99.90;;;;;;5071184;28;20497;-40
2023/08/11 01:27:16;;;;;;;2.80;1.50;;;20.20;99.90;;;;;;5071260;28;20024;-41
2023/08/11 01:29:42;;;;;;;1.90;1.50;;;20.20;99.90;;;;;;5071781;28;20538;-40
2023/08/11 01:32:08;;;;;;;2.90;1.50;;;20.20;99.90;;;;;;5071240;28;20409;-39
2023/08/11 01:34:35;;;;;;;2.50;1.52;;;20.20;99.90;;;;;;5071077;28;20035;-40
2023/08/11 01:37:01;;;;;;;2.08;1.55;;;20.20;99.90;;;;;;5071107;28;20020;-40
2023/08/11 01:39:31;;;;;;;2.55;1.52;;;20.20;99.90;;;;;;5070799;28;20024;-41
2023/08/11 01:41:57;;;;;;;3.20;1.55;;;20.20;99.90;;;;;;5071127;28;20027;-38
2023/08/11 01:44:24;;;;;;;1.88;1.60;;;20.20;99.90;;;;;;5070996;28;20024;-38
2023/08/11 01:46:52;;;;;;;2.15;1.70;;;20.20;99.90;;;;;;5071150;28;20074;-38
2023/08/11 01:49:19;;;;;;;2.80;1.60;;;20.20;99.90;;;;;;5070790;28;20032;-41
2023/08/11 01:51:45;;;;;;;2.80;1.85;;;20.20;99.90;;;;;;5070891;28;20457;-39
2023/08/11 01:54:11;;;;;;;2.55;1.65;;;20.20;99.90;;;;;;5070939;28;20048;-37
2023/08/11 01:56:38;;;;;;;1.90;1.65;;;20.20;99.90;;;;;;5070899;28;20394;-39
2023/08/11 01:59:10;;;;;;;1.77;1.50;;;20.20;99.90;;;;;;5070789;28;20021;-38
2023/08/11 02:01:37;;;;;;;2.47;1.90;;;20.20;99.90;;;;;;5069913;28;20021;-40
2023/08/11 02:04:04;;;;;;;2.42;1.42;;;20.20;99.90;;;;;;5070841;28;20016;-38
2023/08/11 02:06:30;;;;;;;4.80;1.73;;;20.20;99.90;;;;;;5070802;28;20086;-40
2023/08/11 02:08:56;;;;;;;2.47;1.58;;;20.20;99.90;;;;;;5070675;28;20498;-40
2023/08/11 02:11:22;;;;;;;2.20;1.60;;;20.20;99.90;;;;;;5070795;28;20024;-40
2023/08/11 02:13:48;;;;;;;2.92;1.55;;;20.20;99.90;;;;;;5070800;28;20073;-40
2023/08/11 02:16:13;;;;;;;2.63;1.63;;;20.20;99.90;;;;;;5072757;28;20171;-40
2023/08/11 02:18:39;;;;;;;3.72;1.70;;;20.20;99.90;;;;;;5074547;28;20059;-42
2023/08/11 02:21:07;;;;;;;2.72;1.77;;;20.20;99.90;;;;;;5074245;28;20521;-40
2023/08/11 02:23:33;;;;;;;2.78;1.55;;;20.20;99.90;;;;;;5074401;28;20382;-41
2023/08/11 02:25:59;;;;;;;2.88;1.70;;;20.20;99.90;;;;;;5074420;28;20021;-41
2023/08/11 02:28:25;;;;;;;2.58;1.70;;;20.20;99.90;;;;;;5074368;28;20017;-42
2023/08/11 02:30:50;;;;;;;2.55;1.67;;;20.10;99.90;;;;;;5074198;28;20473;-40
2023/08/11 02:33:18;;;;;;;1.65;1.30;;;20.20;99.90;;;;;;5074266;28;20119;-41
2023/08/11 02:35:45;;;;;;;1.83;1.58;;;20.10;99.90;;;;;;5074201;28;20052;-41
2023/08/11 02:38:12;;;;;;;4.97;1.75;;;20.10;99.90;;;;;;5074216;28;20033;-40
2023/08/11 02:40:38;;;;;;;1.83;1.50;;;20.10;99.90;;;;;;5073958;28;20065;-41
2023/08/11 02:43:03;;;;;;;3.03;1.75;;;20.20;99.90;;;;;;5073997;28;20470;-41
2023/08/11 02:45:30;;;;;;;2.60;1.85;;;20.10;99.90;;;;;;5074001;28;20033;-41
2023/08/11 02:47:56;;;;;;;2.13;1.80;;;20.10;99.90;;;;;;5074003;28;20021;-42
2023/08/11 02:50:22;;;;;;;2.83;1.80;;;20.10;99.90;;;;;;5072669;28;20031;-41
2023/08/11 02:52:48;;;;;;;1.80;1.65;;;20.20;99.90;;;;;;5074037;28;20128;-41
2023/08/11 02:55:14;;;;;;;3.65;1.60;;;20.20;99.90;;;;;;5073924;28;20445;-41
2023/08/11 02:57:40;;;;;;;2.53;1.75;;;20.10;99.90;;;;;;5073783;28;20080;-41
2023/08/11 03:00:12;;;;;;;2.67;1.67;;;20.10;99.90;;;;;;5073555;28;20052;-42
2023/08/11 03:02:38;;;;;;;2.30;1.83;;;20.20;99.90;;;;;;5073624;28;20423;-41
2023/08/11 03:05:06;;;;;;;2.25;1.75;;;20.10;99.90;;;;;;5073686;28;20108;-41
2023/08/11 03:07:34;;;;;;;1.98;1.45;;;20.20;99.90;;;;;;5073632;28;20029;-42
2023/08/11 03:10:00;;;;;;;2.75;1.92;;;20.20;99.90;;;;;;5073359;28;20509;-43
2023/08/11 03:12:30;;;;;;;1.73;1.63;;;20.10;99.90;;;;;;5073584;28;20029;-41
2023/08/11 03:14:56;;;;;;;2.40;1.67;;;20.10;99.90;;;;;;5073370;28;20574;-41
2023/08/11 03:17:22;;;;;;;2.35;1.88;;;20.10;99.90;;;;;;5073195;28;20119;-41
2023/08/11 03:19:48;;;;;;;2.50;1.80;;;20.10;99.90;;;;;;5073525;28;20458;-42
2023/08/11 03:22:17;;;;;;;3.80;1.98;;;20.10;99.90;;;;;;5073328;28;20029;-41
2023/08/11 03:24:45;;;;;;;2.65;1.85;;;20.10;99.90;;;;;;5073249;28;20099;-41
2023/08/11 03:27:15;;;;;;;2.80;1.65;;;20.10;99.90;;;;;;5072782;28;20508;-41
2023/08/11 03:29:41;;;;;;;2.08;1.65;;;20.10;99.90;;;;;;5072958;28;20028;-41
2023/08/11 03:32:07;;;;;;;2.10;1.80;;;20.10;99.90;;;;;;5073164;28;20544;-43
2023/08/11 03:34:32;;;;;;;4.28;1.65;;;20.10;99.90;;;;;;5071741;28;20028;-41
2023/08/11 03:36:58;;;;;;;2.25;1.83;;;20.10;99.90;;;;;;5073067;28;20031;-41
2023/08/11 03:39:24;;;;;;;2.67;1.70;;;20.10;99.90;;;;;;5072848;28;20031;-43
2023/08/11 03:41:52;;;;;;;2.80;1.83;;;20.10;99.90;;;;;;5073028;28;20028;-40
2023/08/11 03:44:17;;;;;;;3.00;1.60;;;20.00;99.90;;;;;;5072862;28;20021;-41
2023/08/11 03:46:43;;;;;;;2.05;1.80;;;20.00;99.90;;;;;;5073034;28;20566;-43
2023/08/11 03:49:09;;;;;;;3.17;2.22;;;20.00;99.90;;;;;;5071348;28;20020;-43
2023/08/11 03:51:35;;;;;;;2.03;1.60;;;20.10;99.90;;;;;;5072855;28;20093;-44
2023/08/11 03:54:03;;;;;;;3.15;1.85;;;20.00;99.90;;;;;;5072664;28;20469;-41
2023/08/11 03:56:30;;;;;;;1.85;1.65;;;20.00;99.90;;;;;;5072643;28;20031;-42
2023/08/11 03:58:55;;;;;;;2.67;1.90;;;20.00;99.90;;;;;;5072342;28;20032;-40
2023/08/11 04:01:21;;;;;;;2.83;1.75;;;20.00;99.90;;;;;;5072531;28;20028;-40
2023/08/11 04:03:47;;;;;;;2.75;1.73;;;20.00;99.90;;;;;;5072468;28;20123;-42
2023/08/11 04:06:13;;;;;;;2.40;1.77;;;20.00;99.90;;;;;;5071250;28;20025;-41
2023/08/11 04:08:38;;;;;;;3.08;1.80;;;20.00;99.90;;;;;;5072475;28;20024;-38
2023/08/11 04:11:04;;;;;;;3.25;2.10;;;20.00;99.90;;;;;;5072242;28;20033;-38
2023/08/11 04:13:30;;;;;;;4.53;1.77;;;20.00;99.90;;;;;;5072115;28;20039;-39
2023/08/11 04:15:55;;;;;;;3.08;2.00;;;20.00;99.90;;;;;;5072243;28;20028;-39
2023/08/11 04:18:21;;;;;;;2.28;1.90;;;20.00;99.90;;;;;;5072192;28;20119;-40
2023/08/11 04:20:47;;;;;;;2.10;1.70;;;20.00;99.90;;;;;;5072232;28;20028;-38
2023/08/11 04:23:13;;;;;;;2.13;1.77;;;20.00;99.90;;;;;;5070798;28;20024;-39
2023/08/11 04:25:39;;;;;;;3.05;1.70;;;20.00;99.90;;;;;;5072119;28;20466;-38
2023/08/11 04:28:05;;;;;;;4.28;2.17;;;20.00;99.90;;;;;;5071923;28;20111;-41
2023/08/11 04:30:32;;;;;;;3.75;2.13;;;20.00;99.90;;;;;;5071838;28;20104;-41
2023/08/11 04:32:58;;;;;;;6.38;2.00;;;20.00;99.90;;;;;;5071924;28;20029;-41
2023/08/11 04:35:25;;;;;;;3.08;2.10;;;20.00;99.90;;;;;;5070571;28;20454;-42
2023/08/11 04:37:50;;;;;;;3.67;1.90;;;20.00;99.90;;;;;;5071155;28;20112;-40
2023/08/11 04:40:17;;;;;;;3.38;1.70;;;20.00;99.90;;;;;;5071594;28;20055;-40
2023/08/11 04:42:43;;;;;;;3.22;1.88;;;20.00;99.90;;;;;;5071569;28;20038;-41
2023/08/11 04:45:10;;;;;;;3.38;2.22;;;20.00;99.90;;;;;;5071728;28;20024;-43
2023/08/11 04:47:36;;;;;;;2.00;1.55;;;20.00;99.90;;;;;;5071747;28;20032;-43
2023/08/11 04:50:02;;;;;;;2.45;1.98;;;20.00;99.90;;;;;;5071493;28;20546;-40
2023/08/11 04:52:28;;;;;;;2.75;1.80;;;20.00;99.90;;;;;;5071678;28;20032;-40
2023/08/11 04:54:53;;;;;;;2.70;1.90;;;20.00;99.90;;;;;;5071543;28;20119;-41
2023/08/11 04:57:20;;;;;;;3.72;2.00;;;20.00;99.90;;;;;;5071376;28;20263;-42
2023/08/11 04:59:46;;;;;;;2.25;1.73;;;20.00;99.90;;;;;;5071422;28;20095;-41
2023/08/11 05:02:12;;;;;;;2.97;1.98;;;20.00;99.90;;;;;;5070585;28;20562;-40
2023/08/11 05:04:38;;;;;;;2.20;1.92;;;19.90;99.90;;;;;;5071458;28;20016;-41
2023/08/11 05:07:06;;;;;;;3.65;1.77;;;20.00;99.90;;;;;;5071649;28;20021;-41
2023/08/11 05:09:32;;;;;;;2.75;2.00;;;20.00;99.90;;;;;;5071241;28;20158;-41
2023/08/11 05:11:57;;;;;;;2.50;1.95;;;20.00;99.90;;;;;;5071271;28;20111;-41
2023/08/11 05:14:23;;;;;;;3.05;1.98;;;19.90;99.90;;;;;;5071257;28;20043;-41
2023/08/11 05:16:49;;;;;;;4.35;1.88;;;20.00;99.90;;;;;;5071226;28;20044;-41
2023/08/11 05:19:15;;;;;;;2.58;2.00;;;20.00;99.90;;;;;;5071168;28;20545;-40
2023/08/11 05:21:40;;;;;;;2.88;1.63;;;20.00;99.90;;;;;;5071364;28;20454;-41
2023/08/11 05:24:07;;;;;;;3.22;1.58;;;20.00;99.90;;;;;;5071679;28;20025;-41
2023/08/11 05:26:33;;;;;;;3.53;1.65;;;19.90;99.90;;;;;;5071587;28;20118;-40
2023/08/11 05:28:59;;;;;;;2.85;2.00;;;19.90;99.90;;;;;;5054156;28;20081;-40
2023/08/11 05:31:24;;;;;;;4.15;1.70;;;20.00;99.90;;;;;;5071136;28;20020;-41
2023/08/11 05:33:50;;;;;;;3.10;2.00;;;19.90;99.90;;;;;;5071089;28;20190;-41
2023/08/11 05:36:16;;;;;;;3.20;1.98;;;20.00;99.90;;;;;;5071185;28;20560;-41
2023/08/11 05:38:42;;;;;;;2.35;1.98;;;19.90;99.90;;;;;;5069656;28;20032;-41
2023/08/11 05:41:07;;;;;;;2.30;1.90;;;19.90;99.90;;;;;;5070898;28;20048;-41
2023/08/11 05:43:33;;;;;;;2.78;1.90;;;19.90;99.90;;;;;;5070987;28;20486;-41
2023/08/11 05:45:59;;;;;;;3.03;1.60;;;19.90;99.90;;;;;;5071041;28;20029;-40
2023/08/11 05:48:24;;;;;;;2.67;1.90;;;19.90;99.90;;;;;;5071040;28;20025;-41
2023/08/11 05:50:50;;;;;;;3.75;2.13;;;19.90;99.90;;;;;;5074095;28;20107;-42
2023/08/11 05:53:16;;;;;;;1.63;1.52;;;19.90;99.90;;;;;;5075063;28;20017;-41
2023/08/11 05:55:41;;;;;;;3.55;2.03;;;19.90;99.90;;;;;;5075371;28;20059;-41
2023/08/11 05:58:07;;;;;;;2.45;1.90;;;20.00;99.90;;;;;;5075193;28;20129;-43
2023/08/11 06:00:33;;;;;;;1.98;1.60;;;19.90;99.90;;;;;;5074877;28;20460;-41
2023/08/11 06:02:58;;;;;;;2.00;1.67;;;19.90;99.90;;;;;;5074837;28;20021;-41
2023/08/11 06:05:24;;;;;;;2.20;1.67;;;19.90;99.90;;;;;;5074912;28;20028;-42
2023/08/11 06:07:50;;;;;;;4.32;1.67;;;20.00;99.90;;;;;;5074855;28;20060;-41
2023/08/11 06:10:16;;;;;;;2.60;1.75;;;19.90;99.90;;;;;;5074425;28;20075;-41
2023/08/11 06:12:42;;;;;;;2.92;1.90;;;19.90;99.90;;;;;;5074744;28;20064;-41
2023/08/11 06:15:12;;;;;;;2.72;1.92;;;19.90;99.90;;;;;;5075701;28;20029;-41
2023/08/11 06:17:40;;;;;;;2.92;2.08;;;20.00;99.90;;;;;;5075331;28;20409;-43
2023/08/11 06:20:10;;;;;;;2.05;1.65;;;19.90;99.90;;;;;;5076134;28;20013;-41
2023/08/11 06:22:36;;;;;;;2.67;1.83;;;19.90;99.90;;;;;;5074370;28;20021;-41
2023/08/11 06:25:02;;;;;;;2.05;1.35;;;19.90;99.90;;;;;;5074409;28;20052;-41
2023/08/11 06:27:28;;;;;;;3.45;1.50;;;19.90;99.90;;;;;;5074426;28;20052;-41
2023/08/11 06:29:53;;;;;;;2.78;1.73;;;20.00;99.90;;;;;;5074154;28;20832;-42
2023/08/11 06:32:19;;;;;;;1.83;1.40;;;20.00;99.90;;;;;;5074358;28;20553;-41
2023/08/11 06:34:44;;;;;;;2.00;1.55;;;20.00;99.90;;;;;;5074614;28;20031;-43
2023/08/11 06:37:10;;;;;;;2.13;1.42;;;20.00;99.90;;;;;;5074110;28;20390;-41
2023/08/11 06:39:36;;;;;;;1.73;1.30;;;20.00;99.90;;;;;;5073863;28;20021;-41
2023/08/11 06:42:01;;;;;;;2.15;1.65;;;20.00;99.90;;;;;;5074130;28;20048;-41
2023/08/11 06:44:27;;;;;;;2.25;1.58;;;20.00;99.90;;;;;;5074025;28;20051;-41
2023/08/11 06:46:52;;;;;;;1.95;1.60;;;20.00;99.90;;;;;;5074076;28;20107;-38
2023/08/11 06:49:19;;;;;;;2.05;1.55;;;20.00;99.90;;;;;;5073986;28;20029;-41
2023/08/11 06:51:45;;;;;;;1.77;1.35;;;20.00;99.90;;;;;;5073976;28;20024;-38
2023/08/11 06:54:10;;;;;;;2.33;1.80;;;20.00;99.90;;;;;;5073790;28;20025;-41
2023/08/11 06:56:36;;;;;;;1.70;1.52;;;20.00;99.90;;;;;;5073870;28;20541;-41
2023/08/11 06:59:02;;;;;;;1.75;1.30;;;20.00;99.90;;;;;;5073649;28;20503;-42
2023/08/11 07:01:27;;;;;;;2.28;1.45;;;20.00;99.90;;;;;;5072912;28;20115;-41
2023/08/11 07:03:53;;;;;;;2.28;1.67;;;20.00;99.90;;;;;;5073793;28;20112;-40
2023/08/11 07:06:18;;;;;;;1.90;1.50;;;20.00;99.90;;;;;;5073767;28;20039;-41
2023/08/11 07:08:44;;;;;;;3.08;1.63;;;20.00;99.90;;;;;;5072188;28;20035;-41
2023/08/11 07:11:10;;;;;;;2.33;1.55;;;20.00;99.90;;;;;;5073585;28;20116;-41
2023/08/11 07:13:35;;;;;;;1.90;1.50;;;20.00;99.90;;;;;;5073524;28;20543;-38
2023/08/11 07:16:01;;;;;;;1.85;1.40;;;20.00;99.90;;;;;;5073460;28;20047;-41
2023/08/11 07:18:27;;;;;;;1.60;1.40;;;20.00;99.90;;;;;;5073462;28;20040;-43
2023/08/11 07:20:53;;;;;;;3.47;1.38;;;20.00;99.90;;;;;;5073266;28;20016;-41
2023/08/11 07:23:18;;;;;;;1.88;1.58;;;20.00;99.90;;;;;;5073273;28;20382;-41
2023/08/11 07:25:44;;;;;;;1.80;1.40;;;20.00;99.90;;;;;;5073466;28;20017;-45
2023/08/11 07:28:10;;;;;;;1.40;1.30;;;20.00;99.90;;;;;;5073883;28;20033;-41
2023/08/11 07:30:36;;;;;;;1.50;1.30;;;20.00;99.90;;;;;;5073049;28;20021;-43
2023/08/11 07:33:02;;;;;;;1.90;1.45;;;20.00;99.90;;;;;;5073229;28;20031;-40
2023/08/11 07:35:28;;;;;;;2.25;1.40;;;20.10;99.90;;;;;;5073255;28;20401;-39
2023/08/11 07:37:54;;;;;;;1.45;1.35;;;20.00;99.90;;;;;;5073315;28;20040;-45
2023/08/11 07:40:20;;;;;;;1.95;1.48;;;20.10;99.90;;;;;;5072875;28;20033;-42
2023/08/11 07:42:46;;;;;;;1.50;1.27;;;20.10;99.90;;;;;;5072882;28;20063;-41
2023/08/11 07:45:12;;;;;;;2.45;1.27;;;20.10;99.90;;;;;;5073001;28;20048;-41
2023/08/11 07:47:38;;;;;;;1.77;1.52;;;20.10;99.90;;;;;;5072975;28;20500;-41
2023/08/11 07:50:04;;;;;;;2.17;1.65;;;20.10;99.90;;;;;;5072636;28;20029;-39
2023/08/11 07:52:29;;;;;;;1.45;1.30;;;20.10;99.90;;;;;;5073317;28;20039;-38
2023/08/11 07:54:55;;;;;;;4.55;1.50;;;20.10;99.90;;;;;;5072663;28;20025;-40
2023/08/11 07:57:21;;;;;;;5.25;2.22;;;20.10;99.90;;;;;;5072654;28;20111;-40
2023/08/11 07:59:46;;;;;;;3.58;2.50;;;20.10;99.90;;;;;;5072455;28;20016;-45
2023/08/11 08:02:12;;;;;;;5.25;2.60;;;20.20;99.90;;;;;;5072633;28;20047;-38
2023/08/11 08:04:38;;;;;;;4.55;2.08;;;20.20;99.90;;;;;;5072420;28;20024;-39
2023/08/11 08:07:04;;;;;;;3.65;2.08;;;20.20;99.90;;;;;;5072483;28;20394;-40
2023/08/11 08:09:33;;;;;;;5.72;2.35;;;20.20;99.90;;;;;;5072262;28;20043;-39
2023/08/11 08:12:00;;;;;;;4.57;2.58;;;20.20;99.90;;;;;;5072432;28;20028;-44
2023/08/11 08:14:26;;;;;;;4.20;2.55;;;20.20;99.90;;;;;;5072360;28;20037;-44
2023/08/11 08:16:52;;;;;;;3.58;2.20;;;20.20;99.90;;;;;;5072176;28;20097;-42
2023/08/11 08:19:20;;;;;;;5.07;2.55;;;20.30;99.90;;;;;;5071925;28;20096;-42
2023/08/11 08:21:46;;;;;;;3.60;2.63;;;20.30;99.90;;;;;;5072208;28;20024;-41
2023/08/11 08:24:14;;;;;;;4.22;2.83;;;20.30;99.90;;;;;;5072141;28;20042;-42
2023/08/11 08:26:40;;;;;;;4.00;2.65;;;20.50;99.90;;;;;;5072178;28;20024;-42
2023/08/11 08:29:06;;;;;;;5.65;3.20;;;20.50;99.90;;;;;;5071889;28;20034;-42
2023/08/11 08:31:32;;;;;;;6.43;2.88;;;20.50;99.90;;;;;;5072055;28;20024;-41
2023/08/11 08:33:58;;;;;;;3.13;2.60;;;20.50;99.90;;;;;;5071820;28;20529;-42
2023/08/11 08:36:24;;;;;;;6.13;3.40;;;20.50;99.90;;;;;;5071989;28;20100;-42
2023/08/11 08:38:50;;;;;;;9.00;3.00;;;20.50;99.90;;;;;;5071708;28;20111;-42
2023/08/11 08:41:20;;;;;;;8.75;2.78;;;20.50;99.90;;;;;;5072827;28;20389;-45
2023/08/11 08:43:47;;;;;;;5.00;3.13;;;20.50;99.90;;;;;;5072267;28;20504;-42
2023/08/11 08:46:14;;;;;;;6.05;3.03;;;20.50;99.90;;;;;;5071812;28;20021;-42
2023/08/11 08:48:47;;;;;;;3.45;2.53;;;20.50;99.90;;;;;;5071674;28;20033;-42
2023/08/11 08:51:14;;;;;;;3.47;2.28;;;20.50;99.90;;;;;;5071850;28;20024;-42
2023/08/11 08:53:40;;;;;;;4.28;2.85;;;20.50;99.90;;;;;;5071606;28;20068;-42
2023/08/11 08:56:06;;;;;;;3.40;2.60;;;20.50;99.90;;;;;;5071745;28;20016;-45
2023/08/11 08:58:32;;;;;;;3.53;2.47;;;20.50;99.90;;;;;;5071523;28;20029;-43
2023/08/11 09:01:01;;;;;;;4.43;2.60;;;20.50;99.90;;;;;;5071777;28;20028;-45
2023/08/11 09:03:30;;;;;;;3.10;2.30;;;20.50;99.90;;;;;;5071501;28;20028;-48
2023/08/11 09:05:57;;;;;;;3.40;2.25;;;20.60;99.90;;;;;;5071468;28;20485;-45
2023/08/11 09:08:23;;;;;;;4.05;2.60;;;20.50;99.90;;;;;;5071453;28;20028;-44
2023/08/11 09:10:49;;;;;;;3.55;2.60;;;20.60;99.90;;;;;;5071277;28;20092;-43
2023/08/11 09:13:17;;;;;;;2.65;2.25;;;20.60;99.90;;;;;;5071266;28;20024;-42
2023/08/11 09:15:44;;;;;;;3.60;2.50;;;20.60;99.90;;;;;;5071184;28;20071;-45
2023/08/11 09:18:16;;;;;;;2.88;2.20;;;20.60;99.90;;;;;;5071254;28;20440;-46
2023/08/11 09:20:45;;;;;;;3.28;2.22;;;20.60;99.90;;;;;;5071061;28;20046;-42
2023/08/11 09:23:11;;;;;;;2.63;2.15;;;;;;;;;;5071496;28;20039;-42
2023/08/11 09:25:37;;;;;;;2.85;1.98;;;20.60;99.90;;;;;;5070874;28;20386;-42
2023/08/11 09:28:02;;;;;;;3.35;2.40;;;20.60;99.90;;;;;;5071204;28;20024;-42
2023/08/11 09:30:31;;;;;;;3.15;2.25;;;20.70;99.90;;;;;;5071208;28;20020;-43
2023/08/11 09:33:03;;;;;;;4.88;2.47;;;20.60;99.90;;;;;;5071169;28;20025;-43
2023/08/11 09:35:29;;;;;;;5.38;2.40;;;20.70;99.90;;;;;;5071204;28;20063;-42
2023/08/11 09:37:55;;;;;;;2.65;1.92;;;20.70;99.90;;;;;;5071129;28;20483;-42
2023/08/11 09:40:22;;;;;;;2.97;2.15;;;20.70;99.90;;;;;;5070978;28;20016;-45
2023/08/11 09:42:48;;;;;;;3.15;2.00;;;20.70;99.90;;;;;;5070953;28;20520;-45
2023/08/11 09:45:14;;;;;;;5.22;2.20;;;20.70;99.90;;;;;;5071139;28;20032;-46
2023/08/11 09:47:40;;;;;;;2.60;2.17;;;20.70;99.90;;;;;;5071104;28;20029;-44
2023/08/11 09:50:08;;;;;;;5.47;2.20;;;20.70;99.90;;;;;;5070828;28;20075;-43
2023/08/11 09:52:36;;;;;;;8.20;2.40;;;20.80;99.90;;;;;;5071108;28;20024;-44
2023/08/11 09:55:06;;;;;;;2.92;2.05;;;21.00;99.90;;;;;;5071040;28;20478;-40
2023/08/11 09:57:34;;;;;;;6.75;2.47;;;21.10;99.90;;;;;;5070986;28;20033;-42
2023/08/11 10:00:01;;;;;;;2.65;2.03;;;21.20;99.90;;;;;;5071268;28;20029;-40
2023/08/11 10:02:30;;;;;;;3.45;2.10;;;21.20;99.90;;;;;;5070994;28;20074;-47
2023/08/11 10:05:07;;;;;;;3.30;2.10;;;21.30;99.90;;;;;;5070808;28;20032;-40
2023/08/11 10:07:37;;;;;;;3.03;2.10;;;21.30;99.90;;;;;;5070912;28;20518;-40
2023/08/11 10:10:10;;;;;;;3.35;2.45;;;21.30;99.90;;;;;;5070656;28;20047;-42
2023/08/11 10:12:40;;;;;;;2.28;2.00;;;21.30;99.90;;;;;;5070845;28;20024;-38
2023/08/11 10:15:08;;;;;;;3.70;2.22;;;21.30;99.90;;;;;;5070731;28;20020;-40
2023/08/11 10:17:34;;;;;;;3.28;2.15;;;21.30;99.90;;;;;;5070773;28;20024;-46
2023/08/11 10:20:04;;;;;;;2.97;2.17;;;21.30;99.90;;;;;;5070471;28;20056;-41
2023/08/11 10:22:31;;;;;;;2.20;2.00;;;21.30;99.90;;;;;;5070770;28;20379;-45
2023/08/11 10:24:57;;;;;;;2.25;2.03;;;21.30;99.90;;;;;;5070629;28;20025;-43
2023/08/11 10:27:23;;;;;;;2.60;2.00;;;21.30;99.90;;;;;;5070744;28;20023;-39
2023/08/11 10:29:50;;;;;;;2.85;1.88;;;21.40;99.90;;;;;;5070470;28;20024;-42
2023/08/11 10:32:16;;;;;;;2.15;1.85;;;21.40;99.90;;;;;;5070699;28;20029;-37
2023/08/11 10:34:42;;;;;;;2.72;2.03;;;21.30;99.90;;;;;;5070376;28;20031;-38
2023/08/11 10:37:08;;;;;;;2.10;1.60;;;21.30;99.90;;;;;;5072386;28;20038;-38
2023/08/11 10:39:37;;;;;;;2.47;1.90;;;21.40;99.90;;;;;;5074534;28;20017;-42
2023/08/11 10:42:03;;;;;;;3.05;2.08;;;21.40;99.90;;;;;;5074498;28;20020;-41
2023/08/11 10:44:29;;;;;;;3.92;1.77;;;21.40;99.90;;;;;;5074111;28;20037;-40
2023/08/11 10:47:01;;;;;;;2.33;1.77;;;21.40;99.90;;;;;;5074106;28;20352;-40
2023/08/11 10:49:41;;;;;;;3.55;1.90;;;21.40;99.90;;;;;;5073766;28;20060;-40
2023/08/11 10:52:07;;;;;;;2.92;1.90;;;21.40;99.90;;;;;;5074281;28;20020;-45
2023/08/11 10:54:34;;;;;;;2.78;1.80;;;21.40;99.90;;;;;;5073893;28;20102;-42
2023/08/11 10:57:01;;;;;;;2.35;1.88;;;21.40;99.90;;;;;;5073918;28;20371;-40
2023/08/11 10:59:32;;;;;;;3.30;1.75;;;21.40;99.90;;;;;;5072778;28;20482;-45
2023/08/11 11:01:59;;;;;;;2.15;1.80;;;21.40;99.90;;;;;;5073800;28;20423;-40
2023/08/11 11:04:30;;;;;;;2.97;1.80;;;21.50;99.90;;;;;;5073732;28;20533;-40
2023/08/11 11:06:58;;;;;;;1.95;1.75;;;21.40;99.90;;;;;;5073806;28;20044;-38
2023/08/11 11:09:25;;;;;;;2.50;1.77;;;21.40;99.90;;;;;;5073526;28;20043;-37
2023/08/11 11:11:51;;;;;;;3.50;1.90;;;21.40;99.90;;;;;;5073669;28;20029;-42
2023/08/11 11:14:17;;;;;;;1.83;1.60;;;21.40;99.90;;;;;;5073482;28;20039;-39
2023/08/11 11:16:42;;;;;;;2.70;2.10;;;21.50;99.90;;;;;;5074115;28;20036;-39
2023/08/11 11:19:09;;;;;;;2.60;1.73;;;21.50;99.90;;;;;;5073554;28;20112;-38
2023/08/11 11:21:37;;;;;;;2.38;1.85;;;21.50;99.90;;;;;;5074055;28;20031;-40
2023/08/11 11:24:04;;;;;;;2.00;1.80;;;21.50;99.90;;;;;;5073305;28;20070;-40
2023/08/11 11:26:32;;;;;;;2.05;1.70;;;21.50;99.90;;;;;;5073406;28;20112;-38
2023/08/11 11:28:59;;;;;;;2.35;1.98;;;21.50;99.90;;;;;;5072976;28;20059;-41
2023/08/11 11:31:27;;;;;;;4.47;1.88;;;21.50;99.90;;;;;;5073533;28;20025;-39
2023/08/11 11:33:53;;;;;;;3.63;2.17;;;21.60;99.90;;;;;;5073214;28;20314;-40
2023/08/11 11:36:20;;;;;;;3.00;2.05;;;21.60;99.90;;;;;;5071901;28;20031;-36
2023/08/11 11:38:46;;;;;;;3.50;2.00;;;21.60;99.90;;;;;;5072984;28;20119;-40
2023/08/11 11:41:13;;;;;;;2.80;1.73;;;21.60;99.90;;;;;;5073006;28;20095;-39
2023/08/11 11:43:39;;;;;;;3.35;1.77;;;21.60;99.90;;;;;;5072902;28;20016;-37
2023/08/11 11:46:15;;;;;;;3.63;1.98;;;21.60;99.90;;;;;;5073024;28;20069;-43
2023/08/11 11:48:44;;;;;;;2.97;1.77;;;21.60;99.90;;;;;;5072591;28;20401;-40
2023/08/11 11:51:11;;;;;;;2.42;2.00;;;21.60;99.90;;;;;;5072792;28;20508;-39
2023/08/11 11:53:40;;;;;;;4.50;1.92;;;21.60;99.90;;;;;;5073069;28;20503;-37
2023/08/11 11:56:09;;;;;;;2.70;2.00;;;21.70;99.90;;;;;;5073102;28;20418;-41
2023/08/11 11:58:38;;;;;;;2.22;1.90;;;21.60;99.90;;;;;;5072799;28;20017;-39
2023/08/11 12:01:26;;;;;;;2.85;1.83;;;21.60;99.90;;;;;;5072617;28;20214;-37
2023/08/11 12:03:53;;;;;;;2.25;1.80;;;21.70;99.90;;;;;;5072784;28;20071;-39
2023/08/11 12:06:20;;;;;;;2.75;1.92;;;21.60;99.90;;;;;;5072617;28;20017;-40
2023/08/11 12:08:48;;;;;;;2.28;1.75;;;21.70;99.90;;;;;;5072889;28;20031;-39
2023/08/11 12:11:17;;;;;;;2.10;1.60;;;21.70;99.90;;;;;;5072502;28;20052;-37
2023/08/11 12:13:44;;;;;;;2.60;1.55;;;21.70;99.90;;;;;;5072545;28;20109;-41
2023/08/11 12:16:14;;;;;;;2.05;1.80;;;21.70;99.90;;;;;;5072271;28;20036;-40
2023/08/11 12:18:41;;;;;;;2.67;1.83;;;21.70;99.90;;;;;;5072292;28;20032;-37
2023/08/11 12:21:08;;;;;;;2.42;1.92;;;21.70;99.90;;;;;;5072073;28;20023;-38
2023/08/11 12:23:35;;;;;;;2.78;1.75;;;21.70;99.90;;;;;;5072375;28;20020;-41
2023/08/11 12:26:01;;;;;;;2.67;1.70;;;21.70;99.90;;;;;;5072260;28;20094;-39
2023/08/11 12:28:27;;;;;;;2.78;1.50;;;21.70;99.90;;;;;;5072147;28;20029;-37
2023/08/11 12:30:53;;;;;;;2.08;1.67;;;21.70;99.90;;;;;;5071894;28;20031;-36
2023/08/11 12:33:19;;;;;;;2.00;1.80;;;21.70;99.90;;;;;;5071941;28;20028;-37
2023/08/11 12:35:47;;;;;;;1.65;1.38;;;21.70;99.90;;;;;;5071924;28;20093;-37
2023/08/11 12:38:13;;;;;;;2.10;1.60;;;21.70;99.90;;;;;;5071870;28;20020;-41
2023/08/11 12:40:46;;;;;;;2.53;1.90;;;21.70;99.90;;;;;;5071691;28;20449;-41
2023/08/11 12:43:12;;;;;;;2.42;1.70;;;21.70;99.90;;;;;;5071816;28;20028;-39
2023/08/11 12:45:40;;;;;;;1.80;1.63;;;21.70;99.90;;;;;;5071824;28;20025;-37